Latest Weather Observations for Walpole North

IDW60801

Issued at 11:33 am WST Friday 19 December 2014 (issued every 30 minutes, with the page automatically refreshed every 10 minutes)

About weather observations | Map of weather stations | Latest weather observations for WA | Other Formats
Station Details ID: 009998 Name: NORTH WALPOLE Lat: -34.95 Lon: 116.72 Height: 73.0 m
Data from the previous 72 hours. | See also: Recent months at Walpole North
Date/Time
WST
Temp
°C
App
Temp
°C
Dew
Point
Rel
Hum
%
Delta-T
°C
Wind Press
QNH
hPa
Press
MSL
hPa
Rain
since 9 am
mm
Dir
 
Spd
km/h
Gust
km/h
Spd
kts
Gust
kts
19/11:30am 23.0 21.7 14.8 60 4.9 S 15 24 8 13 1015.7 1015.6 0.0
19/11:00am 23.1 22.5 14.7 59 5.0 S 11 20 6 11 1016.2 1016.1 0.0
19/10:30am 21.6 19.8 14.5 64 4.2 S 17 24 9 13 1016.7 1016.6 0.0
19/10:00am 21.5 20.4 14.4 64 4.2 S 13 24 7 13 1016.9 1016.8 0.0
19/09:30am 21.9 21.2 14.3 62 4.5 SE 11 19 6 10 1017.3 1017.2 0.0
19/09:00am 22.1 20.4 11.2 50 6.1 E 11 20 6 11 1017.3 1017.2 0.0
19/08:30am 21.5 19.7 12.1 55 5.3 E 13 20 7 11 1017.7 1017.6 0.0
19/08:00am 19.0 17.9 13.2 69 3.3 E 11 15 6 8 1018.0 1017.9 0.0
19/07:30am 17.4 17.1 14.5 83 1.7 E 9 19 5 10 1018.1 1018.0 0.0
19/07:00am 15.8 17.1 15.2 96 0.3 NNE 2 7 1 4 1018.4 1018.3 0.0
19/06:30am 13.4 14.3 12.9 97 0.3 CALM 0 6 0 3 1018.4 1018.3 0.0
19/06:00am 13.0 13.9 12.8 99 0.1 CALM 0 0 0 0 1018.1 1018.0 0.0
19/05:30am 11.6 10.7 11.4 99 0.1 SE 7 9 4 5 1017.9 1017.8 0.0
19/05:00am 11.2 10.4 10.9 98 0.2 E 6 7 3 4 1017.8 1017.7 0.0
19/04:30am 11.6 10.9 11.3 98 0.2 E 6 9 3 5 1017.6 1017.5 0.0
19/04:00am 11.8 10.5 11.2 96 0.3 E 9 11 5 6 1017.3 1017.2 0.0
19/03:30am 11.9 10.9 11.1 95 0.4 E 7 11 4 6 1017.2 1017.1 0.0
19/03:00am 12.2 11.3 11.4 95 0.4 ENE 7 11 4 6 1017.2 1017.1 0.0
19/02:30am 12.2 11.3 11.3 94 0.5 ENE 7 9 4 5 1017.3 1017.2 0.0
19/02:00am 12.0 12.2 10.7 92 0.7 CALM 0 0 0 0 1017.3 1017.2 0.0
19/01:30am 12.5 12.9 11.1 91 0.7 CALM 0 0 0 0 1017.5 1017.4 0.0
19/01:00am 12.8 12.0 11.2 90 0.8 ENE 6 11 3 6 1017.8 1017.7 0.0
19/12:30am 13.2 12.3 11.4 89 1.0 E 7 11 4 6 1018.2 1018.1 0.0
19/12:00am 13.0 12.2 11.2 89 0.9 E 6 9 3 5 1018.3 1018.2 0.0
 
Date/Time
WST
Temp
°C
App
Temp
°C
Dew
Point
Rel
Hum
%
Delta-T
°C
Wind Press
QNH
hPa
Press
MSL
hPa
Rain
since 9 am
mm
Dir
 
Spd
km/h
Gust
km/h
Spd
kts
Gust
kts
18/11:30pm 13.5 12.3 11.7 89 1.0 ENE 9 13 5 7 1018.5 1018.4 0.0
18/11:00pm 13.7 12.9 11.7 88 1.1 E 7 11 4 6 1018.6 1018.5 0.0
18/10:30pm 14.1 13.4 12.0 87 1.1 ENE 7 11 4 6 1018.9 1018.8 0.0
18/10:00pm 14.3 13.2 12.0 86 1.2 E 9 11 5 6 1018.8 1018.7 0.0
18/09:30pm 14.4 13.6 11.7 84 1.5 E 7 9 4 5 1018.7 1018.6 0.0
18/09:00pm 13.9 12.4 10.5 80 1.8 E 9 11 5 6 1018.6 1018.5 0.0
18/08:30pm 14.2 12.6 10.2 77 2.1 ESE 9 11 5 6 1018.4 1018.3 0.0
18/08:00pm 14.8 13.6 10.4 75 2.3 E 7 11 4 6 1018.3 1018.2 0.0
18/07:30pm 15.6 13.7 10.6 72 2.6 ESE 11 19 6 10 1018.3 1018.2 0.0
18/07:00pm 16.6 14.1 10.9 69 3.1 SE 15 22 8 12 1018.0 1017.9 0.0
18/06:30pm 17.6 15.4 10.9 65 3.6 SSE 13 20 7 11 1017.9 1017.8 0.0
18/06:00pm 18.5 16.9 11.6 64 3.8 SSE 11 19 6 10 1017.7 1017.6 0.0
18/05:30pm 19.6 17.8 12.1 62 4.2 SSE 13 20 7 11 1017.4 1017.3 0.0
18/05:00pm 19.3 17.6 11.1 59 4.5 SSE 11 20 6 11 1017.4 1017.3 0.0
18/04:30pm 19.5 17.9 11.5 60 4.4 SSE 11 24 6 13 1017.4 1017.3 0.0
18/04:00pm 20.2 17.7 11.1 56 5.0 SSE 15 26 8 14 1017.5 1017.4 0.0
18/03:30pm 20.6 18.8 12.1 58 4.8 SSE 13 24 7 13 1017.6 1017.5 0.0
18/03:00pm 20.2 17.9 10.6 54 5.2 S 13 20 7 11 1017.7 1017.6 0.0
18/02:30pm 20.2 17.7 11.1 56 5.0 SSE 15 26 8 14 1017.9 1017.8 0.0
18/02:00pm 20.6 18.8 12.1 58 4.8 SSE 13 24 7 13 1018.0 1017.9 0.0
18/01:30pm 20.4 18.1 11.9 58 4.7 S 15 26 8 14 1018.0 1017.9 0.0
18/01:00pm 20.2 18.2 11.4 57 4.9 SSE 13 20 7 11 1018.1 1018.0 0.0
18/12:30pm 21.0 18.6 12.7 59 4.7 S 17 26 9 14 1018.1 1018.0 0.0
18/12:00pm 21.1 19.6 12.0 56 5.1 S 11 20 6 11 1018.2 1018.1 0.0
18/11:30am 21.2 19.8 12.1 56 5.1 S 11 20 6 11 1018.3 1018.2 0.0
18/11:00am 21.4 19.5 11.7 54 5.4 S 13 20 7 11 1018.5 1018.4 0.0
18/10:30am 20.7 18.7 11.6 56 5.1 S 13 19 7 10 1018.6 1018.5 0.0
18/10:00am 20.9 20.0 11.5 55 5.2 S 7 15 4 8 1018.8 1018.7 0.0
18/09:30am 20.4 19.4 11.1 55 5.1 SSE 7 11 4 6 1018.7 1018.6 0.0
18/09:00am 19.4 19.2 11.7 61 4.3 SW 4 11 2 6 1018.9 1018.8 1.0
18/08:30am 18.4 17.7 11.5 64 3.8 SE 6 11 3 6 1019.0 1018.9 1.0
18/08:00am 16.8 16.6 10.6 67 3.3 NNE 2 9 1 5 1018.8 1018.7 1.0
18/07:30am 16.7 18.2 14.7 88 1.2 CALM 0 0 0 0 1018.6 1018.5 1.0
18/07:00am 14.7 16.0 14.1 96 0.3 CALM 0 0 0 0 1018.4 1018.3 1.0
18/06:30am 13.1 14.0 12.9 99 0.1 CALM 0 0 0 0 1018.1 1018.0 1.0
18/06:00am 10.9 11.1 10.7 99 0.1 CALM 0 0 0 0 1017.8 1017.7 1.0
18/05:30am 10.2 10.3 10.0 99 0.1 CALM 0 0 0 0 1017.4 1017.3 1.0
18/05:00am 10.1 10.0 9.6 97 0.3 CALM 0 0 0 0 1017.1 1017.0 1.0
18/04:30am 10.1 10.0 9.5 96 0.3 CALM 0 0 0 0 1016.8 1016.7 1.0
18/04:00am 10.3 10.2 9.4 94 0.4 CALM 0 0 0 0 1016.6 1016.5 1.0
18/03:30am 10.4 10.3 9.3 93 0.5 CALM 0 0 0 0 1016.6 1016.5 1.0
18/03:00am 10.5 10.3 9.1 91 0.7 CALM 0 0 0 0 1016.6 1016.5 1.0
18/02:30am 11.2 11.1 9.6 90 0.8 CALM 0 0 0 0 1016.4 1016.3 1.0
18/02:00am 11.5 11.5 9.8 89 0.9 CALM 0 0 0 0 1016.4 1016.3 1.0
18/01:30am 11.4 11.3 9.5 88 1.0 CALM 0 0 0 0 1016.4 1016.3 1.0
18/01:00am 12.0 12.0 9.7 86 1.2 CALM 0 0 0 0 1016.6 1016.5 1.0
18/12:30am 12.1 12.1 9.7 85 1.2 CALM 0 0 0 0 1016.8 1016.7 1.0
18/12:00am 12.2 12.2 9.8 85 1.2 CALM 0 0 0 0 1017.0 1016.9 1.0
 
Date/Time
WST
Temp
°C
App
Temp
°C
Dew
Point
Rel
Hum
%
Delta-T
°C
Wind Press
QNH
hPa
Press
MSL
hPa
Rain
since 9 am
mm
Dir
 
Spd
km/h
Gust
km/h
Spd
kts
Gust
kts
17/11:30pm 12.3 12.3 9.7 84 1.3 CALM 0 0 0 0 1017.0 1016.9 1.0
17/11:00pm 12.3 12.2 9.5 83 1.4 CALM 0 0 0 0 1017.0 1016.9 1.0
17/10:30pm 12.5 12.4 9.3 81 1.6 CALM 0 0 0 0 1016.9 1016.8 1.0
17/10:00pm 13.0 12.5 9.3 78 1.9 SW 2 9 1 5 1016.8 1016.7 1.0
17/09:30pm 13.3 12.4 9.2 76 2.1 SW 4 9 2 5 1016.7 1016.6 1.0
17/09:00pm 13.9 12.6 9.3 74 2.3 SW 6 9 3 5 1016.6 1016.5 1.0
17/08:30pm 14.1 12.6 9.3 73 2.5 SW 7 13 4 7 1016.3 1016.2 1.0
17/08:00pm 14.5 12.7 9.5 72 2.6 SW 9 11 5 6 1016.2 1016.1 1.0
17/07:30pm 15.0 13.6 9.6 70 2.8 SW 7 13 4 7 1015.9 1015.8 1.0
17/07:00pm 15.9 14.5 9.6 66 3.3 SW 7 11 4 6 1015.7 1015.6 1.0
17/06:30pm 16.9 14.3 9.3 61 4.0 SW 13 24 7 13 1015.3 1015.2 1.0
17/06:00pm 17.1 14.5 9.3 60 4.1 SSW 13 24 7 13 1015.1 1015.0 1.0
17/05:30pm 18.8 15.8 9.3 54 5.0 SW 15 24 8 13 1014.8 1014.7 1.0
17/05:00pm 18.9 15.7 9.9 56 4.8 SW 17 26 9 14 1014.5 1014.4 0.0
17/04:30pm 19.3 16.3 9.2 52 5.3 SW 15 26 8 14 1014.2 1014.1 0.0
17/04:00pm 19.3 16.1 10.0 55 5.0 SW 17 28 9 15 1014.2 1014.1 0.0
17/03:30pm 18.4 14.7 9.5 56 4.7 SW 19 30 10 16 1014.2 1014.1 0.0
17/03:00pm 19.7 16.1 10.4 55 5.0 SSW 20 32 11 17 1014.3 1014.2 0.0
17/02:30pm 18.4 14.9 10.3 59 4.3 SW 19 32 10 17 1014.2 1014.1 0.0
17/02:00pm 18.9 15.4 10.2 57 4.7 SW 19 32 10 17 1014.0 1013.9 0.0
17/01:30pm 19.9 16.7 11.4 58 4.7 SW 19 26 10 14 1013.9 1013.8 0.0
17/01:00pm 19.2 16.1 10.2 56 4.8 SW 17 30 9 16 1013.9 1013.8 0.0
17/12:30pm 18.1 15.2 11.0 63 3.9 SW 17 28 9 15 1014.0 1013.9 0.0
17/12:00pm 18.9 17.2 12.4 66 3.6 SW 13 20 7 11 1013.9 1013.8 0.0
17/11:30am 18.0 15.8 10.9 63 3.8 SW 13 22 7 12 1013.9 1013.8 0.0
17/11:00am 17.6 16.0 10.2 62 3.9 W 9 17 5 9 1013.9 1013.8 0.0
17/10:30am 16.9 14.6 10.3 65 3.5 WSW 13 19 7 10 1013.9 1013.8 0.0
17/10:00am 17.7 15.4 9.1 57 4.5 WSW 11 17 6 9 1013.6 1013.5 0.0
17/09:30am 17.4 15.0 8.8 57 4.5 SW 11 20 6 11 1013.5 1013.4 0.0
17/09:00am 16.8 15.8 10.4 66 3.4 W 6 13 3 7 1013.4 1013.2 1.0
17/08:30am 15.9 16.1 10.7 71 2.8 CALM 0 0 0 0 1013.6 1013.5 1.0
17/08:00am 14.7 15.0 10.9 78 2.0 CALM 0 0 0 0 1013.5 1013.4 1.0
17/07:30am 14.1 14.5 11.3 83 1.5 CALM 0 0 0 0 1013.4 1013.2 1.0
17/07:00am 13.4 13.8 11.3 87 1.1 CALM 0 0 0 0 1013.0 1012.8 1.0
17/06:30am 12.8 13.1 11.0 89 0.9 CALM 0 0 0 0 1012.8 1012.6 1.0
17/06:00am 11.5 11.5 9.8 89 0.9 CALM 0 0 0 0 1012.5 1012.3 1.0
17/05:30am 11.5 11.4 9.6 88 1.0 CALM 0 0 0 0 1012.2 1012.0 1.0
17/05:00am 11.6 11.5 9.5 87 1.1 CALM 0 0 0 0 1011.9 1011.7 1.0
17/04:30am 11.0 10.8 8.9 87 1.0 CALM 0 0 0 0 1011.8 1011.6 1.0
17/04:00am 10.7 10.3 8.1 84 1.3 CALM 0 0 0 0 1011.5 1011.3 1.0
17/03:30am 11.7 11.4 8.6 81 1.5 CALM 0 0 0 0 1011.3 1011.1 1.0
17/03:00am 11.8 11.7 9.4 85 1.2 CALM 0 0 0 0 1011.5 1011.3 1.0
17/02:30am 11.1 10.9 9.0 87 1.0 CALM 0 0 0 0 1011.5 1011.3 1.0
17/02:00am 11.1 10.9 9.0 87 1.0 CALM 0 0 0 0 1011.5 1011.3 1.0
17/01:30am 10.6 9.8 8.2 85 1.2 WNW 2 7 1 4 1011.6 1011.4 1.0
17/01:00am 11.3 11.0 8.7 84 1.3 CALM 0 0 0 0 1011.6 1011.4 1.0
17/12:30am 11.4 11.1 8.6 83 1.4 CALM 0 0 0 0 1011.6 1011.4 1.0
17/12:00am 11.9 11.7 8.9 82 1.5 CALM 0 0 0 0 1011.7 1011.5 1.0
 
Date/Time
WST
Temp
°C
App
Temp
°C
Dew
Point
Rel
Hum
%
Delta-T
°C
Wind Press
QNH
hPa
Press
MSL
hPa
Rain
since 9 am
mm
Dir
 
Spd
km/h
Gust
km/h
Spd
kts
Gust
kts
16/11:30pm 12.2 12.0 9.0 81 1.6 CALM 0 0 0 0 1011.9 1011.7 1.0
16/11:00pm 12.1 11.7 8.4 78 1.8 CALM 0 0 0 0 1012.3 1012.1 1.0
16/10:30pm 12.7 12.4 8.6 76 2.1 CALM 0 0 0 0 1012.5 1012.3 1.0
16/10:00pm 12.6 12.2 8.3 75 2.1 CALM 0 0 0 0 1012.7 1012.5 1.0
16/09:30pm 12.2 10.6 7.9 75 2.1 W 6 11 3 6 1012.8 1012.6 1.0
16/09:00pm 12.2 11.7 7.7 74 2.2 CALM 0 0 0 0 1012.8 1012.6 1.0
16/08:30pm 12.4 11.5 7.7 73 2.3 W 2 7 1 4 1012.6 1012.4 1.0
16/08:00pm 13.0 10.8 7.9 71 2.5 WSW 9 11 5 6 1012.4 1012.2 1.0
16/07:30pm 13.7 11.5 7.7 67 3.0 WSW 9 13 5 7 1012.3 1012.1 1.0
16/07:00pm 14.9 12.7 7.7 62 3.6 SW 9 15 5 8 1012.2 1012.0 1.0
16/06:30pm 16.1 13.1 7.6 57 4.3 SW 13 20 7 11 1012.0 1011.8 1.0
16/06:00pm 17.2 13.9 8.1 55 4.6 WSW 15 24 8 13 1011.9 1011.7 1.0
16/05:30pm 17.6 13.7 8.5 55 4.7 SW 19 30 10 16 1011.8 1011.6 1.0
16/05:00pm 18.1 15.0 8.7 54 4.9 WSW 15 24 8 13 1011.7 1011.5 1.0
16/04:30pm 17.4 14.0 7.7 53 4.9 WSW 15 22 8 12 1011.9 1011.7 0.8
16/04:00pm 18.9 15.9 9.1 53 5.2 WSW 15 22 8 12 1012.2 1012.0 0.8
16/03:30pm 18.6 14.8 9.1 54 5.0 SW 19 30 10 16 1012.5 1012.3 0.8
16/03:00pm 18.4 15.8 9.2 55 4.8 SSW 13 28 7 15 1012.7 1012.5 0.8
16/02:30pm 17.1 13.5 8.5 57 4.4 SSE 17 26 9 14 1012.8 1012.6 0.0
16/02:00pm 17.8 15.1 8.9 56 4.6 SSE 13 22 7 12 1012.9 1012.7 0.0
16/01:30pm 18.0 15.4 9.4 57 4.5 SSE 13 20 7 11 1013.2 1013.0 0.0
16/01:00pm 18.9 16.9 10.2 57 4.7 SSW 11 20 6 11 1013.4 1013.2 0.0
16/12:30pm 18.5 17.8 10.1 58 4.5 W 4 11 2 6 1013.7 1013.6 0.0
16/12:00pm 17.0 15.3 9.9 63 3.7 WNW 9 15 5 8 1014.3 1014.2 0.0

Other Formats:

Comma delimited format used in spreadsheet applications
http://www.bom.gov.au/fwo/IDW60801/IDW60801.95647.axf

JavaScript Object Notation format (JSON) in row-major order
http://www.bom.gov.au/fwo/IDW60801/IDW60801.95647.json